createdAt,value
2022-12-06T00:01:48.139Z,102315.38
2022-12-06T00:03:54.887Z,102310.94
2022-12-06T00:06:03.131Z,102325.81
2022-12-06T00:08:07.498Z,102326.72
2022-12-06T00:10:13.736Z,102320.50
2022-12-06T00:12:17.834Z,102326.63
2022-12-06T00:14:22.029Z,102320.50
2022-12-06T00:16:27.426Z,102318.69
2022-12-06T00:18:31.704Z,102331.81
2022-12-06T00:20:36.296Z,102330.00
2022-12-06T00:22:46.116Z,102327.34
2022-12-06T00:24:50.195Z,102331.75
2022-12-06T00:26:55.715Z,102333.53
2022-12-06T00:29:02.507Z,102328.31
2022-12-06T00:31:09.267Z,102331.00
2022-12-06T00:33:13.391Z,102325.75
2022-12-06T00:35:17.303Z,102319.66
2022-12-06T00:37:21.414Z,102333.72
2022-12-06T00:39:25.404Z,102334.66
2022-12-06T00:41:29.544Z,102328.59
2022-12-06T00:43:36.194Z,102330.41
2022-12-06T00:45:40.652Z,102332.16
2022-12-06T00:47:44.729Z,102333.09
2022-12-06T00:49:49.163Z,102327.88
2022-12-06T00:51:53.256Z,102325.25
2022-12-06T00:53:57.401Z,102327.84
2022-12-06T00:56:01.489Z,102326.09
2022-12-06T00:58:05.202Z,102329.59
2022-12-06T01:00:12.394Z,102328.78
2022-12-06T01:02:16.271Z,102321.78
2022-12-06T01:04:21.405Z,102325.25
2022-12-06T01:06:28.313Z,102329.66
2022-12-06T01:08:32.701Z,102323.53
2022-12-06T01:10:36.864Z,102332.22
2022-12-06T01:12:40.493Z,102335.72
2022-12-06T01:14:44.195Z,102330.41
2022-12-06T01:16:49.624Z,102331.25
2022-12-06T01:18:55.321Z,102323.38
2022-12-06T01:20:59.126Z,102321.63
2022-12-06T01:23:02.676Z,102323.34
2022-12-06T01:25:07.102Z,102316.34
2022-12-06T01:27:10.828Z,102321.59
2022-12-06T01:29:14.645Z,102322.47
2022-12-06T01:31:18.630Z,102317.19
2022-12-06T01:33:24.044Z,102322.41
2022-12-06T01:35:27.744Z,102326.78
2022-12-06T01:37:31.409Z,102321.56
2022-12-06T01:39:35.113Z,102316.31
2022-12-06T01:41:38.996Z,102326.84
2022-12-06T01:43:44.578Z,102326.84
2022-12-06T01:45:48.213Z,102323.34
2022-12-06T01:47:51.556Z,102323.34
2022-12-06T01:50:02.326Z,102321.63
2022-12-06T01:52:11.595Z,102321.59
2022-12-06T01:54:20.267Z,102314.59
2022-12-06T01:56:24.174Z,102323.34
2022-12-06T01:58:33.459Z,102321.59
2022-12-06T02:00:37.208Z,102319.84
2022-12-06T02:02:40.705Z,102314.59
2022-12-06T02:04:45.598Z,102317.25
2022-12-06T02:06:52.184Z,102308.53
2022-12-06T02:08:57.394Z,102306.72
2022-12-06T02:11:02.510Z,102314.63
2022-12-06T02:13:07.285Z,102312.91
2022-12-06T02:15:11.810Z,102310.28
2022-12-06T02:17:31.066Z,102320.78
2022-12-06T02:19:56.486Z,102311.13
2022-12-06T02:22:08.838Z,102313.72
2022-12-06T02:24:50.407Z,102308.44
2022-12-06T02:26:58.493Z,102312.75
2022-12-06T02:29:40.212Z,102302.19
2022-12-06T02:31:48.704Z,102310.06
2022-12-06T02:33:58.982Z,102304.81
2022-12-06T02:36:08.993Z,102299.53
2022-12-06T02:38:18.658Z,102307.44
2022-12-06T02:40:25.623Z,102299.59
2022-12-06T02:42:35.075Z,102303.13
2022-12-06T02:44:42.601Z,102297.88
2022-12-06T02:46:49.743Z,102298.75
2022-12-06T02:48:55.652Z,102299.66
2022-12-06T02:51:03.191Z,102292.69
2022-12-06T02:53:10.741Z,102294.41
2022-12-06T02:55:16.451Z,102295.34
2022-12-06T02:57:21.198Z,102295.38
2022-12-06T02:59:24.522Z,102291.91
2022-12-06T03:01:31.331Z,102298.97
2022-12-06T03:03:58.381Z,102285.91
2022-12-06T03:06:36.662Z,102290.31
2022-12-06T03:08:49.733Z,102289.44
2022-12-06T03:10:59.313Z,102285.06
2022-12-06T03:13:10.651Z,102291.22
2022-12-06T03:15:21.661Z,102288.59
2022-12-06T03:17:34.991Z,102284.22
2022-12-06T03:19:42.469Z,102284.22
2022-12-06T03:21:50.970Z,102282.47
2022-12-06T03:23:55.471Z,102288.56
2022-12-06T03:26:02.268Z,102283.25
2022-12-06T03:28:08.219Z,102277.09
2022-12-06T03:30:15.328Z,102279.72
2022-12-06T03:32:22.692Z,102276.25
2022-12-06T03:34:31.902Z,102278.00
2022-12-06T03:36:39.859Z,102277.19
2022-12-06T03:38:50.087Z,102273.72
2022-12-06T03:40:55.625Z,102282.47
2022-12-06T03:43:00.335Z,102272.88
2022-12-06T03:45:05.568Z,102270.28
2022-12-06T03:47:16.018Z,102279.09
2022-12-06T03:49:27.052Z,102274.69
2022-12-06T03:51:33.661Z,102273.81
2022-12-06T03:53:48.353Z,102282.47
2022-12-06T03:55:52.006Z,102278.97
2022-12-06T03:57:55.708Z,102279.81
2022-12-06T03:59:59.548Z,102278.88
2022-12-06T04:02:03.493Z,102277.06
2022-12-06T04:04:07.683Z,102284.03
2022-12-06T04:06:12.958Z,102281.41
2022-12-06T04:08:16.527Z,102284.00
2022-12-06T04:10:20.701Z,102282.22
2022-12-06T04:12:41.883Z,102285.69
2022-12-06T04:14:45.799Z,102282.16
2022-12-06T04:17:06.861Z,102290.97
2022-12-06T04:19:10.855Z,102287.47
2022-12-06T04:21:32.215Z,102291.88
2022-12-06T04:23:37.676Z,102283.91
2022-12-06T04:25:43.223Z,102285.59
2022-12-06T04:28:06.396Z,102271.50
2022-12-06T04:30:29.135Z,102274.00
2022-12-06T04:32:49.846Z,102280.03
2022-12-06T04:35:12.248Z,102281.75
2022-12-06T04:37:32.870Z,102276.53
2022-12-06T04:39:36.842Z,102273.00
2022-12-06T04:41:59.374Z,102262.50
2022-12-06T04:44:03.482Z,102262.50
2022-12-06T04:46:08.119Z,102258.09
2022-12-06T04:48:12.054Z,102265.06
2022-12-06T04:50:15.744Z,102255.44
2022-12-06T04:52:19.822Z,102258.00
2022-12-06T04:54:23.676Z,102261.47
2022-12-06T04:56:27.495Z,102262.38
2022-12-06T04:58:32.572Z,102254.47
2022-12-06T05:00:36.320Z,102265.00
2022-12-06T05:02:40.053Z,102265.84
2022-12-06T05:04:43.871Z,102264.97
2022-12-06T05:06:47.393Z,102262.38
2022-12-06T05:08:51.066Z,102262.38
2022-12-06T05:10:54.635Z,102267.63
2022-12-06T05:12:58.337Z,102272.88
2022-12-06T05:15:03.514Z,102272.88
2022-12-06T05:17:07.390Z,102283.31
2022-12-06T05:19:12.077Z,102273.69
2022-12-06T05:21:18.316Z,102274.50
2022-12-06T05:23:21.873Z,102275.41
2022-12-06T05:25:25.520Z,102275.41
2022-12-06T05:27:34.393Z,102275.41
2022-12-06T05:29:39.686Z,102277.16
2022-12-06T05:31:44.928Z,102272.78
2022-12-06T05:33:49.762Z,102269.28
2022-12-06T05:35:53.518Z,102277.19
2022-12-06T05:37:57.414Z,102271.03
2022-12-06T05:40:01.327Z,102275.38
2022-12-06T05:42:05.576Z,102264.84
2022-12-06T05:44:11.794Z,102264.84
2022-12-06T05:46:16.093Z,102265.69
2022-12-06T05:48:21.072Z,102272.69
2022-12-06T05:50:24.771Z,102264.78
2022-12-06T05:52:28.464Z,102263.00
2022-12-06T05:54:32.255Z,102265.63
2022-12-06T05:56:35.796Z,102257.75
2022-12-06T05:58:40.151Z,102258.59
2022-12-06T06:00:43.610Z,102258.56
2022-12-06T06:02:47.465Z,102254.19
2022-12-06T06:04:53.473Z,102254.16
2022-12-06T06:06:57.357Z,102253.31
2022-12-06T06:09:01.333Z,102254.19
2022-12-06T06:11:05.215Z,102253.34
2022-12-06T06:13:08.765Z,102251.56
2022-12-06T06:15:12.963Z,102257.72
2022-12-06T06:17:17.218Z,102260.34
2022-12-06T06:19:23.599Z,102255.09
2022-12-06T06:21:28.889Z,102254.16
2022-12-06T06:23:32.579Z,102256.75
2022-12-06T06:25:36.232Z,102263.72
2022-12-06T06:27:40.132Z,102260.19
2022-12-06T06:29:45.599Z,102266.31
2022-12-06T06:31:49.568Z,102262.75
2022-12-06T06:33:53.182Z,102272.38
2022-12-06T06:35:57.089Z,102274.13
2022-12-06T06:38:02.134Z,102268.88
2022-12-06T06:40:06.809Z,102272.31
2022-12-06T06:42:10.388Z,102276.72
2022-12-06T06:44:14.500Z,102276.78
2022-12-06T06:46:18.014Z,102271.56
2022-12-06T06:48:22.512Z,102274.25
2022-12-06T06:50:26.568Z,102271.59
2022-12-06T06:52:30.370Z,102283.91
2022-12-06T06:54:35.346Z,102276.06
2022-12-06T06:56:38.991Z,102278.69
2022-12-06T06:58:42.822Z,102276.06
2022-12-06T07:00:46.479Z,102274.25
2022-12-06T07:02:50.128Z,102278.66
2022-12-06T07:04:53.937Z,102273.34
2022-12-06T07:06:57.581Z,102271.66
2022-12-06T07:09:01.126Z,102273.34
2022-12-06T07:11:06.199Z,102274.19
2022-12-06T07:13:09.870Z,102270.66
2022-12-06T07:15:13.773Z,102270.66
2022-12-06T07:17:17.481Z,102274.16
2022-12-06T07:19:21.346Z,102269.81
2022-12-06T07:21:25.110Z,102274.19
2022-12-06T07:23:28.819Z,102269.84
2022-12-06T07:25:33.703Z,102273.34
2022-12-06T07:27:39.024Z,102275.97
2022-12-06T07:29:42.588Z,102278.63
2022-12-06T07:31:46.405Z,102282.13
2022-12-06T07:33:52.793Z,102283.06
2022-12-06T07:36:11.972Z,102274.31
2022-12-06T07:38:16.699Z,102276.94
2022-12-06T07:40:30.729Z,102271.72
2022-12-06T07:43:03.673Z,102274.38
2022-12-06T07:45:08.950Z,102282.34
2022-12-06T07:47:12.677Z,102275.41
2022-12-06T07:49:17.851Z,102272.88
2022-12-06T07:51:21.454Z,102269.47
2022-12-06T07:53:25.553Z,102273.97
2022-12-06T07:55:29.401Z,102274.91
2022-12-06T07:57:33.936Z,102270.69
2022-12-06T07:59:41.434Z,102268.16
2022-12-06T08:01:45.192Z,102262.91
2022-12-06T08:03:48.954Z,102265.53
2022-12-06T08:09:07.311Z,102254.28
2022-12-06T08:11:32.439Z,102263.03
2022-12-06T08:13:38.496Z,102265.66
2022-12-06T08:19:43.124Z,102271.75
2022-12-06T08:21:49.351Z,102270.84
2022-12-06T08:23:53.904Z,102270.81
2022-12-06T08:26:01.760Z,102278.63
2022-12-06T08:28:06.419Z,102279.44
2022-12-06T08:30:15.528Z,102286.41
2022-12-06T08:32:38.169Z,102288.97
2022-12-06T08:34:54.272Z,102293.31
2022-12-06T08:37:03.160Z,102292.34
2022-12-06T08:39:08.000Z,102294.06
2022-12-06T08:41:32.567Z,102300.19
2022-12-06T08:43:36.225Z,102306.31
2022-12-06T08:45:39.991Z,102308.94
2022-12-06T08:47:44.959Z,102301.91
2022-12-06T08:49:51.158Z,102310.66
2022-12-06T08:51:55.213Z,102307.16
2022-12-06T08:54:01.714Z,102298.34
2022-12-06T08:56:05.500Z,102303.59
2022-12-06T08:58:09.321Z,102300.97
2022-12-06T09:00:14.302Z,102301.81
2022-12-06T09:02:18.200Z,102309.69
2022-12-06T09:04:23.587Z,102312.31
2022-12-06T09:06:28.216Z,102315.78
2022-12-06T09:08:32.125Z,102307.91
2022-12-06T09:10:35.923Z,102318.38
2022-12-06T09:12:39.562Z,102320.09
2022-12-06T09:14:43.239Z,102320.94
2022-12-06T09:16:47.222Z,102319.13
2022-12-06T09:18:52.728Z,102317.41
2022-12-06T09:20:57.870Z,102324.41
2022-12-06T09:23:01.564Z,102334.06
2022-12-06T09:25:05.806Z,102329.69
2022-12-06T09:27:09.748Z,102327.91
2022-12-06T09:29:13.929Z,102334.91
2022-12-06T09:31:18.221Z,102329.63
2022-12-06T09:33:22.660Z,102324.34
2022-12-06T09:35:26.429Z,102326.91
2022-12-06T09:37:31.567Z,102321.56
2022-12-06T09:39:39.140Z,102325.91
2022-12-06T09:42:13.652Z,102324.13
2022-12-06T09:44:45.442Z,102324.09
2022-12-06T09:47:00.809Z,102330.22
2022-12-06T09:49:18.235Z,102327.59
2022-12-06T09:51:33.422Z,102335.50
2022-12-06T09:53:56.193Z,102331.97
2022-12-06T09:56:07.065Z,102332.81
2022-12-06T09:58:25.931Z,102337.09
2022-12-06T10:00:37.214Z,102350.22
2022-12-06T10:03:09.173Z,102351.03
2022-12-06T10:05:34.416Z,102348.34
2022-12-06T10:07:46.676Z,102353.50
2022-12-06T10:10:03.428Z,102340.28
2022-12-06T10:12:21.305Z,102340.13
2022-12-06T10:14:38.540Z,102337.38
2022-12-06T10:16:53.708Z,102348.63
2022-12-06T10:19:09.482Z,102345.03
2022-12-06T10:21:23.350Z,102347.69
2022-12-06T10:23:43.881Z,102346.97
2022-12-06T10:25:58.341Z,102347.09
2022-12-06T10:28:12.265Z,102341.09
2022-12-06T10:30:18.559Z,102349.06
2022-12-06T10:32:43.733Z,102352.72
2022-12-06T10:34:56.536Z,102350.22
2022-12-06T10:37:07.064Z,102352.06
2022-12-06T10:39:18.127Z,102353.00
2022-12-06T10:41:28.562Z,102357.44
2022-12-06T10:43:40.085Z,102353.06
2022-12-06T10:46:08.896Z,102344.28
2022-12-06T10:48:21.418Z,102347.81
2022-12-06T10:50:30.027Z,102347.88
2022-12-06T10:52:40.934Z,102340.00
2022-12-06T10:54:54.912Z,102332.16
2022-12-06T10:57:06.335Z,102327.84
2022-12-06T10:59:24.991Z,102327.03
2022-12-06T11:01:33.224Z,102335.81
2022-12-06T11:03:41.588Z,102337.53
2022-12-06T11:05:49.997Z,102331.34
2022-12-06T11:07:58.234Z,102337.31
2022-12-06T11:10:03.018Z,102339.00
2022-12-06T11:12:25.365Z,102338.91
2022-12-06T11:14:39.963Z,102338.00
2022-12-06T11:16:51.811Z,102338.81
2022-12-06T11:19:02.134Z,102336.19
2022-12-06T11:21:19.136Z,102332.69
2022-12-06T11:23:29.470Z,102326.56
2022-12-06T11:25:40.879Z,102336.16
2022-12-06T11:27:50.782Z,102330.91
2022-12-06T11:29:54.548Z,102324.75
2022-12-06T11:32:01.278Z,102321.16
2022-12-06T11:34:08.187Z,102321.97
2022-12-06T11:36:14.202Z,102326.34
2022-12-06T11:38:18.834Z,102335.19
2022-12-06T11:40:27.341Z,102332.69
2022-12-06T11:42:31.228Z,102339.78
2022-12-06T11:44:49.254Z,102344.16
2022-12-06T11:46:57.725Z,102345.88
2022-12-06T11:49:14.969Z,102336.16
2022-12-06T11:51:21.039Z,102339.53
2022-12-06T11:53:28.942Z,102330.72
2022-12-06T11:55:38.170Z,102332.34
2022-12-06T11:57:47.766Z,102327.91
2022-12-06T12:00:27.047Z,102331.31
2022-12-06T12:02:33.206Z,102334.03
2022-12-06T12:04:40.033Z,102329.81
2022-12-06T12:06:43.931Z,102336.94
2022-12-06T12:09:02.041Z,102331.78
2022-12-06T12:11:06.247Z,102333.53
2022-12-06T12:13:39.787Z,102337.84
2022-12-06T12:15:53.323Z,102315.81
2022-12-06T12:17:59.627Z,102320.97
2022-12-06T12:20:06.739Z,102324.56
2022-12-06T12:22:24.076Z,102317.56
2022-12-06T12:27:36.460Z,102313.88
2022-12-06T12:29:40.121Z,102303.34
2022-12-06T12:31:56.631Z,102307.56
2022-12-06T12:34:15.610Z,102308.41
2022-12-06T12:36:26.912Z,102304.81
2022-12-06T12:38:38.223Z,102311.75
2022-12-06T12:40:43.760Z,102295.03
2022-12-06T12:42:48.024Z,102299.41
2022-12-06T12:44:54.995Z,102293.22
2022-12-06T12:47:02.349Z,102291.41
2022-12-06T12:49:24.183Z,102289.72
2022-12-06T12:51:34.832Z,102296.94
2022-12-06T12:53:41.283Z,102297.06
2022-12-06T12:55:45.141Z,102292.00
2022-12-06T12:57:50.654Z,102287.84
2022-12-06T12:59:54.365Z,102286.31
2022-12-06T13:02:06.098Z,102285.56
2022-12-06T13:04:18.979Z,102284.75
2022-12-06T13:06:31.764Z,102283.06
2022-12-06T13:08:38.699Z,102274.31
2022-12-06T13:10:47.982Z,102286.63
2022-12-06T13:12:56.121Z,102279.63
2022-12-06T13:15:05.986Z,102284.06
2022-12-06T13:17:14.592Z,102282.38
2022-12-06T13:19:20.123Z,102285.06
2022-12-06T13:21:26.456Z,102289.59
2022-12-06T13:23:35.228Z,102291.41
2022-12-06T13:25:38.977Z,102294.22
2022-12-06T13:27:47.020Z,102292.56
2022-12-06T13:29:57.038Z,102286.50
2022-12-06T13:32:06.584Z,102290.06
2022-12-06T13:34:22.606Z,102293.59
2022-12-06T13:36:28.089Z,102288.34
2022-12-06T13:38:33.719Z,102287.47
2022-12-06T13:40:47.652Z,102284.00
2022-12-06T13:42:51.592Z,102289.25
2022-12-06T13:44:59.682Z,102284.06
2022-12-06T13:47:39.685Z,102282.25
2022-12-06T13:49:49.199Z,102279.63
2022-12-06T13:51:53.451Z,102289.19
2022-12-06T13:54:32.181Z,102282.09
2022-12-06T13:56:41.388Z,102282.03
2022-12-06T13:58:53.815Z,102285.47
2022-12-06T14:00:58.761Z,102288.03
2022-12-06T14:03:04.003Z,102284.47
2022-12-06T14:05:40.929Z,102288.88
2022-12-06T14:07:46.059Z,102280.19
2022-12-06T14:09:52.444Z,102283.00
2022-12-06T14:11:56.341Z,102275.22
2022-12-06T14:14:09.030Z,102274.47
2022-12-06T14:16:20.149Z,102272.78
2022-12-06T14:18:27.260Z,102268.44
2022-12-06T14:20:32.584Z,102260.66
2022-12-06T14:22:37.480Z,102268.59
2022-12-06T14:24:44.626Z,102266.91
2022-12-06T14:26:49.130Z,102264.25
2022-12-06T14:28:55.881Z,102252.91
2022-12-06T14:31:06.258Z,102258.22
2022-12-06T14:33:20.499Z,102254.72
2022-12-06T14:35:25.987Z,102250.28
2022-12-06T14:37:29.940Z,102257.22
2022-12-06T14:39:33.745Z,102255.38
2022-12-06T14:41:58.107Z,102251.84
2022-12-06T14:44:01.993Z,102250.94
2022-12-06T14:46:08.765Z,102244.84
2022-12-06T14:48:13.963Z,102250.97
2022-12-06T14:50:29.145Z,102242.19
2022-12-06T14:52:33.431Z,102244.78
2022-12-06T14:54:43.284Z,102245.59
2022-12-06T14:56:48.900Z,102247.34
2022-12-06T14:58:53.551Z,102252.50
2022-12-06T15:01:01.533Z,102252.47
2022-12-06T15:03:24.070Z,102257.66
2022-12-06T15:05:36.876Z,102260.22
2022-12-06T15:07:42.446Z,102255.81
2022-12-06T15:09:48.010Z,102264.56
2022-12-06T15:12:10.726Z,102265.47
2022-12-06T15:14:16.641Z,102267.28
2022-12-06T15:16:20.419Z,102257.78
2022-12-06T15:18:26.131Z,102258.72
2022-12-06T15:20:30.342Z,102256.13
2022-12-06T15:22:38.460Z,102255.25
2022-12-06T15:24:42.566Z,102254.44
2022-12-06T15:26:46.727Z,102255.31
2022-12-06T15:28:52.759Z,102256.16
2022-12-06T15:30:57.133Z,102255.28
2022-12-06T15:33:01.018Z,102252.63
2022-12-06T15:35:06.287Z,102250.00
2022-12-06T15:37:38.205Z,102253.50
2022-12-06T15:39:36.366Z,102245.66
2022-12-06T15:41:42.244Z,102247.38
2022-12-06T15:43:46.340Z,102252.63
2022-12-06T15:45:51.647Z,102251.81
2022-12-06T15:47:56.443Z,102254.44
2022-12-06T15:50:00.274Z,102249.19
2022-12-06T15:52:03.870Z,102254.44
2022-12-06T15:54:07.622Z,102250.09
2022-12-06T15:56:16.265Z,102249.25
2022-12-06T15:58:20.157Z,102261.53
2022-12-06T16:00:24.145Z,102264.16
2022-12-06T16:02:29.321Z,102258.06
2022-12-06T16:04:35.297Z,102253.72
2022-12-06T16:06:38.949Z,102260.75
2022-12-06T16:08:43.542Z,102256.41
2022-12-06T16:11:11.269Z,102264.31
2022-12-06T16:13:25.468Z,102262.66
2022-12-06T16:15:28.903Z,102249.47
2022-12-06T16:17:34.171Z,102264.44
2022-12-06T16:19:55.039Z,102259.22
2022-12-06T16:21:59.052Z,102267.13
2022-12-06T16:24:13.137Z,102268.94
2022-12-06T16:26:17.528Z,102265.41
2022-12-06T16:28:21.259Z,102268.06
2022-12-06T16:30:32.734Z,102268.06
2022-12-06T16:32:38.096Z,102264.59
2022-12-06T16:34:41.928Z,102263.72
2022-12-06T16:36:56.982Z,102256.75
2022-12-06T16:39:02.878Z,102261.09
2022-12-06T16:41:10.337Z,102260.25
2022-12-06T16:43:14.306Z,102261.16
2022-12-06T16:45:18.841Z,102259.41
2022-12-06T16:51:52.291Z,102263.75
2022-12-06T16:53:56.365Z,102260.25
2022-12-06T16:56:00.207Z,102261.09
2022-12-06T16:58:03.807Z,102265.50
2022-12-06T17:00:08.943Z,102266.34
2022-12-06T17:02:26.598Z,102271.59
2022-12-06T17:04:32.285Z,102265.50
2022-12-06T17:06:37.347Z,102261.16
2022-12-06T17:08:41.002Z,102260.31
2022-12-06T17:10:44.727Z,102264.69
2022-12-06T17:12:50.387Z,102256.88
2022-12-06T17:14:54.024Z,102263.88
2022-12-06T17:17:00.769Z,102270.03
2022-12-06T17:19:05.399Z,102270.88
2022-12-06T17:21:15.695Z,102270.06
2022-12-06T17:23:20.869Z,102276.19
2022-12-06T17:25:24.543Z,102276.19
2022-12-06T17:27:28.383Z,102268.34
2022-12-06T17:29:32.205Z,102273.59
2022-12-06T17:31:37.544Z,102272.69
2022-12-06T17:33:41.326Z,102272.78
2022-12-06T17:35:45.151Z,102271.97
2022-12-06T17:37:50.798Z,102271.94
2022-12-06T17:39:54.387Z,102273.75
2022-12-06T17:42:15.167Z,102272.00
2022-12-06T17:44:19.575Z,102269.38
2022-12-06T17:46:23.537Z,102277.25
2022-12-06T17:48:33.344Z,102278.13
2022-12-06T17:50:39.155Z,102285.19
2022-12-06T17:52:43.347Z,102279.06
2022-12-06T17:54:48.593Z,102284.28
2022-12-06T17:56:54.223Z,102280.75
2022-12-06T17:59:01.759Z,102281.56
2022-12-06T18:01:05.753Z,102278.13
2022-12-06T18:03:09.642Z,102283.31
2022-12-06T18:05:13.395Z,102285.94
2022-12-06T18:07:18.435Z,102288.56
2022-12-06T18:09:22.705Z,102296.47
2022-12-06T18:11:29.840Z,102286.91
2022-12-06T18:13:33.970Z,102290.41
2022-12-06T18:15:41.856Z,102294.78
2022-12-06T18:17:46.086Z,102293.84
2022-12-06T18:19:49.967Z,102289.47
2022-12-06T18:21:54.202Z,102286.78
2022-12-06T18:24:20.244Z,102290.28
2022-12-06T18:26:23.902Z,102292.00
2022-12-06T18:28:29.287Z,102294.63
2022-12-06T18:30:32.836Z,102294.63
2022-12-06T18:32:36.504Z,102291.06
2022-12-06T18:34:40.411Z,102299.81
2022-12-06T18:36:44.837Z,102299.81
2022-12-06T18:38:49.537Z,102298.00
2022-12-06T18:40:54.103Z,102305.88
2022-12-06T18:42:58.401Z,102315.47
2022-12-06T18:45:04.024Z,102313.75
2022-12-06T18:47:08.018Z,102321.63
2022-12-06T18:49:12.961Z,102321.59
2022-12-06T18:51:19.117Z,102318.09
2022-12-06T18:53:22.816Z,102318.06
2022-12-06T18:55:27.409Z,102324.16
2022-12-06T18:57:32.277Z,102324.16
2022-12-06T18:59:38.087Z,102322.38
2022-12-06T19:01:43.922Z,102322.38
2022-12-06T19:03:48.759Z,102335.50
2022-12-06T19:06:03.040Z,102336.47
2022-12-06T19:08:07.740Z,102336.56
2022-12-06T19:10:12.218Z,102339.19
2022-12-06T19:12:16.333Z,102340.91
2022-12-06T19:14:20.570Z,102336.50
2022-12-06T19:16:26.997Z,102337.38
2022-12-06T19:18:33.361Z,102327.69
2022-12-06T19:20:37.751Z,102331.16
2022-12-06T19:22:49.135Z,102332.00
2022-12-06T19:24:52.857Z,102330.28
2022-12-06T19:27:00.064Z,102329.41
2022-12-06T19:29:06.231Z,102329.47
2022-12-06T19:31:14.199Z,102327.78
2022-12-06T19:33:19.182Z,102329.56
2022-12-06T19:35:25.145Z,102328.75
2022-12-06T19:37:28.770Z,102324.44
2022-12-06T19:39:33.436Z,102323.59
2022-12-06T19:41:57.707Z,102309.69
2022-12-06T19:44:15.791Z,102307.94
2022-12-06T19:46:22.847Z,102314.13
2022-12-06T19:48:26.712Z,102308.91
2022-12-06T19:50:31.901Z,102316.78
2022-12-06T19:52:35.732Z,102322.09
2022-12-06T19:54:40.375Z,102318.59
2022-12-06T19:56:44.298Z,102323.88
2022-12-06T19:58:48.109Z,102319.53
2022-12-06T20:00:51.932Z,102314.38
2022-12-06T20:02:55.751Z,102328.41
2022-12-06T20:04:59.427Z,102327.53
2022-12-06T20:07:05.983Z,102333.63
2022-12-06T20:09:09.588Z,102330.16
2022-12-06T20:11:30.019Z,102330.13
2022-12-06T20:13:35.200Z,102331.00
2022-12-06T20:15:39.239Z,102327.50
2022-12-06T20:17:43.268Z,102330.91
2022-12-06T20:19:49.404Z,102328.31
2022-12-06T20:21:53.446Z,102327.41
2022-12-06T20:24:00.389Z,102329.13
2022-12-06T20:26:05.423Z,102336.13
2022-12-06T20:28:13.435Z,102336.97
2022-12-06T20:30:18.286Z,102329.97
2022-12-06T20:32:22.135Z,102331.69
2022-12-06T20:34:29.224Z,102318.59
2022-12-06T20:36:33.730Z,102320.28
2022-12-06T20:38:37.840Z,102326.41
2022-12-06T20:40:43.266Z,102326.41
2022-12-06T20:42:47.438Z,102323.81
2022-12-06T20:44:51.491Z,102325.50
2022-12-06T20:46:57.853Z,102320.28
2022-12-06T20:49:06.105Z,102326.31
2022-12-06T20:51:13.976Z,102323.69
2022-12-06T20:53:19.387Z,102323.66
2022-12-06T20:55:28.982Z,102314.88
2022-12-06T20:57:44.232Z,102314.88
2022-12-06T20:59:49.669Z,102312.22
2022-12-06T21:01:55.215Z,102306.06
2022-12-06T21:04:06.549Z,102310.44
2022-12-06T21:06:13.295Z,102308.69
2022-12-06T21:08:19.188Z,102308.69
2022-12-06T21:10:23.531Z,102309.56
2022-12-06T21:12:28.717Z,102310.44
2022-12-06T21:14:34.492Z,102315.66
2022-12-06T21:16:39.345Z,102317.38
2022-12-06T21:18:43.940Z,102308.63
2022-12-06T21:20:48.507Z,102313.00
2022-12-06T21:22:52.692Z,102308.59
2022-12-06T21:24:57.256Z,102310.38
2022-12-06T21:27:01.959Z,102308.59
2022-12-06T21:29:06.449Z,102311.25
2022-12-06T21:31:29.824Z,102316.50
2022-12-06T21:33:34.591Z,102314.75
2022-12-06T21:35:42.353Z,102315.63
2022-12-06T21:40:47.887Z,102316.53
2022-12-06T21:42:58.295Z,102318.25
2022-12-06T21:45:02.492Z,102324.38
2022-12-06T21:47:08.268Z,102318.25
2022-12-06T21:49:22.589Z,102324.34
2022-12-06T21:51:28.667Z,102321.69
2022-12-06T21:53:33.076Z,102330.44
2022-12-06T21:55:40.060Z,102328.63
2022-12-06T21:57:44.006Z,102339.13
2022-12-06T21:59:49.526Z,102333.06
2022-12-06T22:01:54.079Z,102335.81
2022-12-06T22:04:02.449Z,102328.84
2022-12-06T22:06:12.229Z,102337.56
2022-12-06T22:08:16.471Z,102338.41
2022-12-06T22:10:25.784Z,102332.28
2022-12-06T22:12:33.493Z,102337.53
2022-12-06T22:14:37.575Z,102341.88
2022-12-06T22:16:42.027Z,102337.50
2022-12-06T22:18:46.620Z,102346.19
2022-12-06T22:21:01.823Z,102334.78
2022-12-06T22:23:05.998Z,102345.25
2022-12-06T22:25:16.357Z,102336.44
2022-12-06T22:27:24.876Z,102339.09
2022-12-06T22:29:32.370Z,102337.31
2022-12-06T22:31:37.382Z,102332.94
2022-12-06T22:33:42.592Z,102339.06
2022-12-06T22:35:46.701Z,102332.91
2022-12-06T22:37:52.915Z,102335.53
2022-12-06T22:39:56.797Z,102333.81
2022-12-06T22:42:00.767Z,102339.06
2022-12-06T22:44:08.568Z,102335.56
2022-12-06T22:46:16.327Z,102339.13
2022-12-06T22:48:21.398Z,102340.00
2022-12-06T22:50:25.665Z,102331.28
2022-12-06T22:52:29.838Z,102333.88
2022-12-06T22:54:35.743Z,102329.50
2022-12-06T22:56:47.422Z,102322.53
2022-12-06T22:58:54.069Z,102326.03
2022-12-06T23:00:58.122Z,102320.78
2022-12-06T23:03:02.405Z,102322.56
2022-12-06T23:05:10.405Z,102323.41
2022-12-06T23:07:14.424Z,102333.06
2022-12-06T23:09:18.676Z,102333.94
2022-12-06T23:11:26.380Z,102333.94
2022-12-06T23:13:30.593Z,102334.78
2022-12-06T23:15:34.799Z,102339.16
2022-12-06T23:17:39.533Z,102340.06
2022-12-06T23:22:36.356Z,102336.63
2022-12-06T23:24:51.158Z,102339.22
2022-12-06T23:27:16.888Z,102345.34
2022-12-06T23:29:28.100Z,102331.34
2022-12-06T23:31:44.488Z,102339.22
2022-12-06T23:33:49.361Z,102341.00
2022-12-06T23:36:04.063Z,102334.03
2022-12-06T23:38:08.364Z,102339.31
2022-12-06T23:40:13.427Z,102334.97
2022-12-06T23:42:18.964Z,102334.19
2022-12-06T23:44:25.489Z,102325.41
2022-12-06T23:46:31.902Z,102322.78
2022-12-06T23:48:44.144Z,102327.13
2022-12-06T23:53:35.383Z,102333.25
2022-12-06T23:55:40.070Z,102324.53
2022-12-06T23:57:55.025Z,102339.38
